Tiempo atmosférico en la estación meteorológica de Pedraza, Segovia (1107 m.)



Fecha
DESCASC
Temp. máxima en grados centígrados (hora)
DESCASC
Temp. mínima en grados centígrados (hora)
DESCASC
Temp. media en grados centígrados
DESCASC
Racha de viento máxima en m/sg (hora)
DESCASC
Velocidad máxima media en intervalos de 10 minutos(hora)
DESCASC
Precipitaciones diarias en mm
DESCASC
Precipitaciones de 00:00 a 06:00 en mm
DESCASC
Precipitaciones de 06:00 a 12:00 en mm
DESCASC
Precipitaciones de 12:00 a 18:00 en mm
DESCASC
Precipitaciones de 18:00 a 24:00 en mm
DESCASC
17-09-2020 24.4 (16:00) 14.3 (22:00) 19.3 16.39 (00:20) 10 (00:20) 6.6 0 0 0 6.6
15-09-2020 25.8 (17:20) 14.7 (04:40) 20.2 13.06 (00:10) 5.83 (00:10) 7.6 7.6 0 0 0
14-09-2020 26.2 (18:00) 18.8 (23:59) 22.5 15.83 (04:10) 10 (02:20) 0 0 0 0 0
13-09-2020 29.4 (15:10) 18.1 (00:00) 23.8 13.89 (14:50) 7.5 (14:10) 0 0 0 0 0
12-09-2020 30 (16:50) 14 (02:10) 22 7.5 (15:20) 4.72 (11:50) 0 0 0 0 0
11-09-2020 27.6 (16:40) 13.3 (00:00) 20.5 7.5 (15:30) 4.17 (15:30) 0 0 0 0 0
10-09-2020 26.8 (17:10) 9.5 (00:00) 18.1 8.61 (15:40) 4.17 (16:50) 0 0 0 0 0
09-09-2020 26.5 (17:20) 11.3 (08:00) 18.9 7.78 (15:30) 3.89 (00:40) 0 0 0 0 0
08-09-2020 24.3 (18:00) 4.6 (00:00) 14.4 8.33 (18:30) 4.72 (15:20) 0 0 0 0 0
07-09-2020 22.8 (17:30) 6.3 (07:40) 14.5 9.44 (12:10) 5.28 (19:00) 0 0 0 0 0
06-09-2020 27.9 (16:00) 13.4 (00:00) 20.6 9.17 (15:10) 5.28 (17:00) 0 0 0 0 0
05-09-2020 30.7 (18:20) 14.4 (00:00) 22.6 8.33 (20:20) 4.44 (20:50) 0 0 0 0 0
04-09-2020 31.1 (17:20) 17.1 (00:00) 24.1 8.33 (03:50) 5.83 (03:50) 0 0 0 0 0
03-09-2020 29.2 (18:10) 10.8 (00:00) 20 10.83 (14:10) 4.17 (16:10) 0 0 0 0 0
02-09-2020 25.7 (16:50) 8.6 (00:00) 17.2 8.06 (13:50) 3.89 (19:00) 0 0 0 0 0
01-09-2020 25.7 (18:30) 11.2 (00:00) 18.5 6.67 (18:20) 4.17 (18:20) 0 0 0 0 0
31-08-2020 23 (18:00) 5.3 (00:00) 14.2 9.17 (14:20) 5 (14:30) 0 0 0 0 0
30-08-2020 17.8 (17:50) 4.3 (00:00) 11 7.5 (18:10) 4.72 (18:40) 0 0 0 0 0
29-08-2020 18.9 (17:10) 7 (00:00) 12.9 10.83 (16:20) 6.11 (17:00) 4.4 0 0 1.2 3.2
28-08-2020 25.7 (17:40) 13.2 (00:00) 19.5 11.39 (18:20) 8.06 (18:40) 0 0 0 0 0
27-08-2020 31.9 (17:00) 15.9 (00:00) 23.9 8.89 (17:50) 5.28 (17:50) 0 0 0 0 0
26-08-2020 33 (17:40) 15.9 (00:00) 24.4 8.61 (15:00) 5 (14:20) 0 0 0 0 0
25-08-2020 32.6 (18:00) 15.4 (00:00) 24 10 (18:10) 5.56 (14:30) 0 0 0 0 0
24-08-2020 29.9 (18:00) 11.5 (05:30) 20.7 8.33 (16:50) 4.44 (18:50) 0 0 0 0 0
23-08-2020 28.6 (17:40) 11.6 (00:00) 20.1 7.22 (18:30) 4.17 (18:30) 0 0 0 0 0
22-08-2020 28 (18:10) 11.4 (00:00) 19.7 8.06 (16:30) 4.72 (16:30) 0 0 0 0 0
21-08-2020 29.9 (15:50) 13.9 (07:20) 21.9 11.67 (17:10) 7.22 (17:20) 5.8 0 0 0 5.8

Gráficas

Temp. máximas Temp. mínimas Temp. medias Precipitaciones Rachas de viento máximas Velocidades máximas media en intervalos de 10 minutos

Datos horarios

Fecha y hora oficial Temperatura (ºC) Velocidad del viento (km/h) Dirección del viento Racha (km/h) Dirección de racha Precipitación (mm) Presión (hPa) Tendencia (hPa) Humedad (%)
2020-09-19 23:00:00 12.8 12 Oeste 22 Oeste 0.2 -- -- 86
2020-09-19 22:00:00 13.6 11 Sudoeste 25 Sudoeste 0 -- -- 77
2020-09-19 21:00:00 13.8 11 Sudoeste 19 Sudoeste 0 -- -- 77
2020-09-19 20:00:00 14.8 10 Sudoeste 30 Sudoeste 0 -- -- 74
2020-09-19 19:00:00 16.3 19 Sudoeste 32 Oeste 0 -- -- 68
2020-09-19 18:00:00 16.3 15 Oeste 28 Oeste 0 -- -- 76
2020-09-19 17:00:00 14.8 9 Sudoeste 29 Sudoeste 0.8 -- -- 87
2020-09-19 16:00:00 14.9 17 Sudoeste 42 Sudoeste 2.4 -- -- 86
2020-09-19 15:00:00 14.8 11 Sudoeste 31 Oeste 0.2 -- -- 84
2020-09-19 14:00:00 16 19 Oeste 44 Oeste 0 -- -- 69
2020-09-19 13:00:00 15.7 25 Oeste 44 Sudoeste 0 -- -- 71
2020-09-19 12:00:00 14.8 27 Sudoeste 42 Sudoeste 0 -- -- 76
2020-09-19 11:00:00 14.8 21 Sudoeste 39 Sudoeste 0 -- -- 75
2020-09-19 10:00:00 14.2 14 Sur 32 Sur 0 -- -- 78
2020-09-19 09:00:00 14.2 20 Sur 32 Sur 0 -- -- 76
2020-09-19 08:00:00 13.7 22 Sur 34 Sur 0.2 -- -- 78
2020-09-19 07:00:00 12.5 15 Sur 33 Sur 0 -- -- 85
2020-09-19 06:00:00 12.7 21 Sur 36 Sur 0.2 -- -- 81
2020-09-19 05:00:00 12.5 17 Sur 31 Sur 0 -- -- 81
2020-09-19 04:00:00 11.9 4 Sur 13 Sudoeste 0 -- -- 88
2020-09-19 03:00:00 12 2 Noroeste 20 Sudeste 0.4 -- -- 94
2020-09-19 02:00:00 11.8 9 Este 13 Este 8.2 -- -- 95
2020-09-19 01:00:00 12.1 5 Nordeste 10 Norte 3.8 -- -- 93
2020-09-19 00:00:00 12.2 4 Oeste 40 Sur 1 -- -- 91
2020-09-18 23:00:00 12.9 24 Sur 35 Sur 0 -- -- 84
2020-09-18 22:00:00 12.6 7 Sur 38 Sur 0 -- -- 81
2020-09-18 21:00:00 12 20 Sur 31 Sur 0.2 -- -- 80
2020-09-18 20:00:00 12.2 7 Este 35 Sur 2.6 -- -- 85
2020-09-18 19:00:00 13.4 20 Sudoeste 38 Sudoeste 0.4 -- -- 83
2020-09-18 18:00:00 14.1 9 Sudeste 46 Sur 1.2 -- -- 84
2020-09-18 17:00:00 16.5 19 Sudeste 39 Sudeste 0 -- -- 71
2020-09-18 16:00:00 18.7 19 Sudeste 37 Sur 0 -- -- 63
2020-09-18 15:00:00 19 19 Sur 31 Sudeste 0 -- -- 62
2020-09-18 14:00:00 17.3 9 Sudeste 20 Sudeste 0 -- -- 73
2020-09-18 13:00:00 15.6 4 Este 9 Norte 0.2 -- -- 85
2020-09-18 12:00:00 13.7 5 Nordeste 9 Nordeste 0 -- -- 91
2020-09-18 11:00:00 13.1 6 Nordeste 14 Oeste 0.2 -- -- 92
2020-09-18 10:00:00 13.8 13 Oeste 24 Oeste 0.2 -- -- 87
2020-09-18 09:00:00 15 14 Sur 27 Sur 0 -- -- 81
2020-09-18 08:00:00 13.1 9 Sudeste 17 Sudeste 0.2 -- -- 92
2020-09-18 07:00:00 11.7 4 Nordeste 43 Oeste 1.4 -- -- 93
2020-09-18 06:00:00 12.5 31 Oeste 60 Oeste 0.2 -- -- 88
2020-09-18 05:00:00 15.1 5 Oeste 20 Sudeste 0 -- -- 91
2020-09-18 04:00:00 15 8 Sudeste 29 Sudeste 1.2 -- -- 91
2020-09-18 03:00:00 14.9 21 Sudeste 29 Sudeste 0.6 -- -- 89
2020-09-18 02:00:00 14.8 9 Sudeste 24 Sudeste 1 -- -- 90
2020-09-18 01:00:00 14.9 17 Sudeste 27 Sudeste 0.2 -- -- 88
2020-09-18 00:00:00 14.6 10 Sudeste 25 Sudeste 3.2 -- -- 89
2020-09-17 23:00:00 14.7 4 Nordeste 22 Sudeste 0.2 -- -- 86
2020-09-17 22:00:00 14.3 17 Sudeste 42 Sur 3.2 -- -- 83
2020-09-17 21:00:00 19.8 9 Sur 19 Sudeste 0 -- -- 65
2020-09-17 20:00:00 20.4 15 Sudeste 32 Sur 0 -- -- 60
2020-09-17 19:00:00 21.1 17 Sudeste 35 Sudeste 0 -- -- 57
2020-09-17 18:00:00 21.9 24 Sur 44 Sur 0 -- -- 56
2020-09-17 17:00:00 22.5 23 Sur 43 Sur 0 -- -- 52
2020-09-17 16:00:00 24.4 15 Sur 42 Sur 0 -- -- 44
2020-09-17 15:00:00 23.4 22 Sudeste 44 Sur 0 -- -- 49
2020-09-17 14:00:00 22.3 29 Sur 44 Sudeste 0 -- -- 52
2020-09-17 13:00:00 21.6 19 Sur 52 Sur 0 -- -- 55
2020-09-17 12:00:00 19.9 22 Sur 36 Sur 0 -- -- 62
2020-09-17 11:00:00 18.5 17 Sudeste 44 Sudeste 0 -- -- 69
2020-09-17 10:00:00 17.2 26 Sudeste 42 Sudeste 0 -- -- 74
2020-09-17 09:00:00 17.1 29 Sudeste 49 Sudeste 0 -- -- 72
2020-09-17 08:00:00 17.6 12 Sur 21 Sudeste 0 -- -- 67
2020-09-17 07:00:00 17.7 12 Sudeste 21 Sudeste 0 -- -- 65
2020-09-17 06:00:00 17.6 10 Este 22 Sudeste 0 -- -- 65
2020-09-17 05:00:00 18.3 15 Sudeste 27 Sur 0 -- -- 61
2020-09-17 04:00:00 17.8 11 Sudeste 22 Sudeste 0 -- -- 64
2020-09-17 03:00:00 17.8 8 Sudoeste 19 Oeste 0 -- -- 66
2020-09-17 02:00:00 17.8 6 Este 18 Sudeste 0 -- -- 66
2020-09-17 01:00:00 17.6 15 Sur 59 Sur 0 -- -- 68
2020-09-17 00:00:00 20 10 Este 16 Sudeste 0 -- -- 53
2020-09-16 23:00:00 19.2 7 Sudeste 12 Sudeste 0 -- -- 55
2020-09-16 22:00:00 19.5 7 Sudeste 10 Sudeste 0 -- -- 55
2020-09-16 21:00:00 21.3 3 Sudeste 5 Oeste 0 -- -- 50
2020-09-16 20:00:00 24.3 0 Calma 24 Sur 0 -- -- 40
2020-09-16 19:00:00 25.7 14 Sur 29 Sur 0 -- -- 35
2020-09-16 18:00:00 26.1 17 Sudeste 28 Sudeste 0 -- -- 32
2020-09-16 17:00:00 26.6 13 Sudeste 33 Sur 0 -- -- 33
2020-09-16 16:00:00 26.7 17 Sudeste 32 Sur 0 -- -- 35
2020-09-16 15:00:00 26.5 17 Sudeste 31 Sur 0 -- -- 35
2020-09-16 14:00:00 26.1 15 Sudeste 29 Sur 0 -- -- 39
2020-09-16 13:00:00 25.5 18 Sudeste 32 Sur 0 -- -- 40
2020-09-16 12:00:00 24.6 11 Sudeste 24 Este 0 -- -- 41
2020-09-16 11:00:00 22.3 6 Nordeste 9 Nordeste 0 -- -- 47
2020-09-16 10:00:00 20.1 2 Norte 6 Sudeste 0 -- -- 53
2020-09-16 09:00:00 15.4 3 Sudeste 12 Sudeste 0 -- -- 71
2020-09-16 08:00:00 14.3 6 Sudeste 12 Sudeste 0 -- -- 70
2020-09-16 07:00:00 14.5 9 Este 15 Este 0 -- -- 70
2020-09-16 06:00:00 14.9 9 Sudeste 13 Sudeste 0 -- -- 70
2020-09-16 05:00:00 15.2 7 Sudeste 9 Sudeste 0 -- -- 74
2020-09-16 04:00:00 15.8 3 Este 13 Este 0 -- -- 68
2020-09-16 03:00:00 15.6 6 Sudeste 14 Sudoeste 0 -- -- 68
2020-09-16 02:00:00 16.9 9 Sudoeste 14 Sudoeste 0 -- -- 62
2020-09-16 01:00:00 16.1 5 Noroeste 18 Oeste 0 -- -- 63
2020-09-16 00:00:00 17.4 8 Sudeste 14 Sur 0 -- -- 57
2020-09-15 23:00:00 18.1 8 Sudeste 14 Sudeste 0 -- -- 57
2020-09-15 22:00:00 19.1 12 Sudeste 16 Sur 0 -- -- 55
2020-09-15 21:00:00 20.3 8 Sudeste 15 Sur 0 -- -- 53
2020-09-15 20:00:00 22.9 9 Sur 24 Sur 0 -- -- 47
2020-09-15 19:00:00 24.7 10 Sur 20 Sur 0 -- -- 44
2020-09-15 18:00:00 24.3 8 Sur 19 Sur 0 -- -- 44
2020-09-15 17:00:00 25.3 15 Sur 23 Sudoeste 0 -- -- 40
2020-09-15 16:00:00 24.7 7 Oeste 17 Oeste 0 -- -- 44
2020-09-15 15:00:00 24.4 8 Sudoeste 23 Sudeste 0 -- -- 47
2020-09-15 14:00:00 23 10 Sur 19 Sur 0 -- -- 53
2020-09-15 13:00:00 21.1 8 Sudoeste 15 Sudoeste 0 -- -- 58
2020-09-15 12:00:00 20.9 2 Sudoeste 11 Noroeste 0 -- -- 62
2020-09-15 11:00:00 20.5 6 Noroeste 10 Noroeste 0 -- -- 71
2020-09-15 10:00:00 19 3 Sur 12 Sur 0 -- -- 74
2020-09-15 09:00:00 15.9 10 Sur 17 Sudeste 0 -- -- 80
2020-09-15 08:00:00 15.3 10 Sudeste 19 Sur 0 -- -- 84
2020-09-15 07:00:00 15.5 13 Sur 19 Sur 0 -- -- 84
2020-09-15 06:00:00 15.5 2 Sur 13 Sudeste 1.4 -- -- 86
2020-09-15 05:00:00 15 6 Sudeste 13 Nordeste 5.2 -- -- 86
2020-09-15 04:00:00 15.1 7 Este 22 Noroeste 1 -- -- 86
2020-09-15 03:00:00 17.3 16 Oeste 33 Oeste 0 -- -- 69
2020-09-15 02:00:00 16.5 5 Sudeste 15 Este 0 -- -- 67
2020-09-15 01:00:00 16.3 6 Este 47 Sudoeste 0 -- -- 69
2020-09-15 00:00:00 18.8 26 Oeste 55 Oeste 0 -- -- 58
2020-09-14 23:00:00 22.6 22 Sudeste 45 Sur 0 -- -- 40
2020-09-14 22:00:00 23.3 11 Sur 27 Sudoeste 0 -- -- 38
2020-09-14 21:00:00 23.5 10 Sudoeste 27 Sudoeste 0 -- -- 38
2020-09-14 20:00:00 24.7 17 Sur 33 Sur 0 -- -- 36
2020-09-14 19:00:00 24.8 10 Sur 30 Sudeste 0 -- -- 37
2020-09-14 18:00:00 26.2 12 Sur 28 Sudeste 0 -- -- 35
2020-09-14 17:00:00 23.7 8 Sudeste 29 Sudeste 0 -- -- 40
2020-09-14 16:00:00 24 19 Sudeste 35 Sur 0 -- -- 39
2020-09-14 15:00:00 24.1 16 Sur 30 Sur 0 -- -- 39
2020-09-14 14:00:00 24.2 19 Sur 30 Sudeste 0 -- -- 39
2020-09-14 13:00:00 24 18 Sudeste 32 Sur 0 -- -- 37
2020-09-14 12:00:00 23.4 15 Sudeste 37 Sur 0 -- -- 38
2020-09-14 11:00:00 24.3 19 Sur 35 Sur 0 -- -- 36
2020-09-14 10:00:00 21.8 19 Sur 36 Sudeste 0 -- -- 44
2020-09-14 09:00:00 20.4 19 Sur 37 Sur 0 -- -- 45
2020-09-14 08:00:00 19.7 24 Sur 52 Sur 0 -- -- 46
2020-09-14 07:00:00 20.2 28 Sudeste 45 Sur 0 -- -- 45
2020-09-14 06:00:00 20 31 Sur 54 Sur 0 -- -- 52
2020-09-14 05:00:00 20.4 26 Sur 57 Sur 0 -- -- 53
2020-09-14 04:00:00 20.6 32 Sudeste 55 Sudeste 0 -- -- 51
2020-09-14 03:00:00 21 28 Sudeste 53 Sudeste 0 -- -- 48
2020-09-14 02:00:00 22 32 Sur 51 Sur 0 -- -- 44
2020-09-14 01:00:00 23 27 Sur 48 Sudeste 0 -- -- 39
2020-09-14 00:00:00 23.5 22 Sur 34 Sur 0 -- -- 36
2020-09-13 23:00:00 22.9 8 Sudeste 22 Sur 0 -- -- 36
2020-09-13 22:00:00 23.4 9 Sudeste 24 Sur 0 -- -- 34
2020-09-13 21:00:00 24.2 9 Sudeste 23 Sudeste 0 -- -- 33
2020-09-13 20:00:00 27.1 14 Sudeste 33 Sur 0 -- -- 28
2020-09-13 19:00:00 28.4 22 Sur 36 Sur 0 -- -- 27
2020-09-13 18:00:00 28.8 15 Sudeste 34 Sur 0 -- -- 28
2020-09-13 17:00:00 28.6 23 Sudeste 41 Sur 0 -- -- 27
2020-09-13 16:00:00 27.6 22 Sudeste 36 Sudeste 0 -- -- 29
2020-09-13 15:00:00 29.2 24 Sudeste 50 Sur 0 -- -- 28
2020-09-13 14:00:00 28.7 23 Sudeste 38 Sudeste 0 -- -- 28
2020-09-13 13:00:00 27.9 23 Sudeste 37 Sudeste 0 -- -- 30
2020-09-13 12:00:00 27 23 Sudeste 36 Sudeste 0 -- -- 32
2020-09-13 11:00:00 26.2 15 Sudeste 29 Sudeste 0 -- -- 34
2020-09-13 10:00:00 24.2 17 Sudeste 30 Sur 0 -- -- 38
2020-09-13 09:00:00 21.7 13 Sudeste 24 Sudeste 0 -- -- 40
2020-09-13 08:00:00 20 14 Sudeste 28 Sur 0 -- -- 43
2020-09-13 07:00:00 20.3 15 Sudeste 31 Sudeste 0 -- -- 44
2020-09-13 06:00:00 20.4 15 Sudeste 34 Sudeste 0 -- -- 46
2020-09-13 05:00:00 20.8 24 Sur 34 Sur 0 -- -- 45
2020-09-13 04:00:00 20.4 9 Sur 20 Sur 0 -- -- 45
2020-09-13 03:00:00 21.5 10 Sur 19 Sudeste 0 -- -- 40
2020-09-13 02:00:00 21.6 8 Sudeste 24 Sudeste 0 -- -- 34
2020-09-13 01:00:00 20.4 10 Sudeste 22 Sudeste 0 -- -- 35
2020-09-13 00:00:00 18.7 4 Sudeste 10 Este 0 -- -- 36
2020-09-12 23:00:00 20.8 6 Este 17 Este 0 -- -- 28
2020-09-12 22:00:00 21 8 Nordeste 13 Nordeste 0 -- -- 27
2020-09-12 21:00:00 22.9 5 Sudeste 11 Norte 0 -- -- 27
2020-09-12 20:00:00 26.8 5 Nordeste 13 Norte 0 -- -- 22
2020-09-12 19:00:00 29 10 Noroeste 21 Noroeste 0 -- -- 20
2020-09-12 18:00:00 29.3 8 Noroeste 18 Norte 0 -- -- 20
2020-09-12 17:00:00 29.9 4 Sudeste 21 Norte 0 -- -- 20
2020-09-12 16:00:00 28.9 9 Norte 27 Noroeste 0 -- -- 21
2020-09-12 15:00:00 28.5 9 Noroeste 26 Norte 0 -- -- 21
2020-09-12 14:00:00 27.6 12 Norte 22 Norte 0 -- -- 21
2020-09-12 13:00:00 26.4 6 Norte 23 Nordeste 0 -- -- 21
2020-09-12 12:00:00 25.4 15 Nordeste 26 Nordeste 0 -- -- 25
2020-09-12 11:00:00 24.2 7 Norte 14 Norte 0 -- -- 27
2020-09-12 10:00:00 20.2 0 Calma 4 Norte 0 -- -- 37
2020-09-12 09:00:00 16.4 0 Calma 8 Este 0 -- -- 48
2020-09-12 08:00:00 14.1 4 Este 8 Este 0 -- -- 48
2020-09-12 07:00:00 14.3 0 Calma 5 Sudeste 0 -- -- 53
2020-09-12 06:00:00 14.7 3 Sudeste 9 Este 0 -- -- 52
2020-09-12 05:00:00 15.9 8 Este 11 Este 0 -- -- 47
2020-09-12 04:00:00 16.2 7 Este 9 Este 0 -- -- 39
2020-09-12 03:00:00 15.1 8 Sudeste 15 Sudeste 0 -- -- 38
2020-09-12 02:00:00 14.1 8 Sudeste 9 Sudeste 0 -- -- 43
2020-09-12 01:00:00 16.2 7 Este 8 Este 0 -- -- 40
2020-09-12 00:00:00 17.4 4 Sur 16 Este 0 -- -- 37
2020-09-11 23:00:00 19.6 10 Este 18 Este 0 -- -- 33
2020-09-11 22:00:00 20 10 Este 16 Nordeste 0 -- -- 32
2020-09-11 21:00:00 21.3 7 Nordeste 12 Nordeste 0 -- -- 33
2020-09-11 20:00:00 24.8 8 Noroeste 17 Norte 0 -- -- 29
2020-09-11 19:00:00 27 10 Noroeste 18 Noroeste 0 -- -- 26
2020-09-11 18:00:00 26.6 10 Norte 25 Noroeste 0 -- -- 28
2020-09-11 17:00:00 27.5 11 Noroeste 24 Noroeste 0 -- -- 27
2020-09-11 16:00:00 27.3 10 Noroeste 27 Noroeste 0 -- -- 27
2020-09-11 15:00:00 26.5 14 Oeste 24 Oeste 0 -- -- 28
2020-09-11 14:00:00 25.5 8 Norte 25 Oeste 0 -- -- 31
2020-09-11 13:00:00 24.7 11 Norte 23 Noroeste 0 -- -- 33
2020-09-11 12:00:00 24 12 Noroeste 18 Noroeste 0 -- -- 33
2020-09-11 11:00:00 23.1 5 Noroeste 10 Noroeste 0 -- -- 35
2020-09-11 10:00:00 20.6 3 Oeste 8 Sudeste 0 -- -- 40
2020-09-11 09:00:00 15.9 6 Sudeste 11 Sudeste 0 -- -- 51
2020-09-11 08:00:00 13.5 9 Sudeste 12 Sudeste 0 -- -- 55
2020-09-11 07:00:00 13.4 8 Sudeste 12 Sudeste 0 -- -- 55
2020-09-11 06:00:00 14 10 Sudeste 13 Este 0 -- -- 53
2020-09-11 05:00:00 14.3 11 Sudeste 13 Sudeste 0 -- -- 50
2020-09-11 04:00:00 14.4 10 Sudeste 13 Sudeste 0 -- -- 52
2020-09-11 03:00:00 14.7 10 Sudeste 14 Sudeste 0 -- -- 52
2020-09-11 02:00:00 14.4 9 Este 12 Sudeste 0 -- -- 53
2020-09-11 01:00:00 15 9 Sudeste 12 Sudeste 0 -- -- 51
2020-09-11 00:00:00 15.9 5 Sudeste 9 Este 0 -- -- 48
2020-09-10 23:00:00 17.9 6 Este 12 Este 0 -- -- 42
2020-09-10 22:00:00 18 6 Este 12 Nordeste 0 -- -- 41
2020-09-10 21:00:00 21.9 6 Norte 17 Noroeste 0 -- -- 32
2020-09-10 20:00:00 24.9 10 Noroeste 23 Noroeste 0 -- -- 28
2020-09-10 19:00:00 25.6 8 Nordeste 19 Norte 0 -- -- 27
2020-09-10 18:00:00 26 11 Norte 21 Norte 0 -- -- 26
2020-09-10 17:00:00 26.6 7 Oeste 24 Noroeste 0 -- -- 27
2020-09-10 16:00:00 25.6 13 Norte 31 Nordeste 0 -- -- 30
2020-09-10 15:00:00 25.4 13 Noroeste 28 Norte 0 -- -- 32
2020-09-10 14:00:00 24.6 11 Noroeste 28 Norte 0 -- -- 34
2020-09-10 13:00:00 24.1 9 Norte 21 Norte 0 -- -- 35
2020-09-10 12:00:00 22.7 5 Noroeste 14 Nordeste 0 -- -- 39
2020-09-10 11:00:00 20.8 6 Norte 11 Noroeste 0 -- -- 41
2020-09-10 10:00:00 18.3 2 Noroeste 4 Sudeste 0 -- -- 48
2020-09-10 09:00:00 14.2 3 Sudeste 6 Este 0 -- -- 58
2020-09-10 08:00:00 10.3 2 Sudeste 8 Sudeste 0 -- -- 69
2020-09-10 07:00:00 10.1 2 Sudeste 8 Sudeste 0 -- -- 66
2020-09-10 06:00:00 10.8 6 Sudeste 8 Sudeste 0 -- -- 65
2020-09-10 05:00:00 11.1 2 Norte 9 Sudeste 0 -- -- 64
2020-09-10 04:00:00 11.9 4 Este 10 Nordeste 0 -- -- 60
2020-09-10 03:00:00 12.8 4 Este 12 Sudeste 0 -- -- 56
2020-09-10 02:00:00 13 6 Sudeste 9 Nordeste 0 -- -- 56
2020-09-10 01:00:00 15 5 Este 10 Sudeste 0 -- -- 49
2020-09-10 00:00:00 15.1 4 Sudeste 8 Sudeste 0 -- -- 47
2020-09-09 23:00:00 16.3 6 Este 9 Sudeste 0 -- -- 42
2020-09-09 22:00:00 17.9 4 Este 14 Norte 0 -- -- 38
2020-09-09 21:00:00 21.7 7 Noroeste 15 Noroeste 0 -- -- 30
2020-09-09 20:00:00 24.4 10 Norte 19 Norte 0 -- -- 27
2020-09-09 19:00:00 25.1 8 Nordeste 21 Nordeste 0 -- -- 26
2020-09-09 18:00:00 25.2 11 Nordeste 23 Noroeste 0 -- -- 24
2020-09-09 17:00:00 25.5 8 Norte 25 Norte 0 -- -- 25
2020-09-09 16:00:00 25.5 9 Noroeste 28 Sudoeste 0 -- -- 25
2020-09-09 15:00:00 24.9 9 Norte 23 Noroeste 0 -- -- 26
2020-09-09 14:00:00 23.7 8 Noroeste 20 Noroeste 0 -- -- 28
2020-09-09 13:00:00 22.6 9 Norte 20 Norte 0 -- -- 30
2020-09-09 12:00:00 21.8 9 Norte 17 Norte 0 -- -- 32
2020-09-09 11:00:00 20.4 9 Norte 13 Norte 0 -- -- 35
2020-09-09 10:00:00 19.7 2 Este 7 Sudeste 0 -- -- 36
2020-09-09 09:00:00 14.4 5 Este 12 Sudeste 0 -- -- 48
2020-09-09 08:00:00 11.3 10 Sudeste 11 Sudeste 0 -- -- 53
2020-09-09 07:00:00 12.3 7 Sudeste 11 Sudeste 0 -- -- 52
2020-09-09 06:00:00 13.6 7 Sudeste 17 Sudeste 0 -- -- 49
2020-09-09 05:00:00 14.6 10 Sur 18 Sur 0 -- -- 47
2020-09-09 04:00:00 14.8 9 Sudeste 16 Sur 0 -- -- 45
2020-09-09 03:00:00 14.2 7 Sudeste 14 Este 0 -- -- 47
2020-09-09 02:00:00 15.5 6 Sudeste 18 Sudeste 0 -- -- 44
2020-09-09 01:00:00 16.6 9 Sudeste 24 Sudeste 0 -- -- 41
2020-09-09 00:00:00 17.4 9 Este 29 Este 0 -- -- 39
2020-09-08 23:00:00 15.6 5 Nordeste 12 Este 0 -- -- 37
2020-09-08 22:00:00 17.2 8 Sudeste 17 Sudeste 0 -- -- 34
2020-09-08 21:00:00 19.2 10 Sudeste 18 Sur 0 -- -- 30
2020-09-08 20:00:00 22.2 13 Sudeste 23 Sudeste 0 -- -- 26
2020-09-08 19:00:00 24 7 Sur 30 Sudeste 0 -- -- 22
2020-09-08 18:00:00 24.3 12 Sur 26 Sur 0 -- -- 22
2020-09-08 17:00:00 23.8 13 Sudeste 26 Sudeste 0 -- -- 24
2020-09-08 16:00:00 23.8 13 Sudeste 30 Sudeste 0 -- -- 21
2020-09-08 15:00:00 23 12 Sudeste 29 Sudeste 0 -- -- 21
2020-09-08 14:00:00 22.2 14 Sudeste 28 Sudeste 0 -- -- 25
2020-09-08 13:00:00 21.4 12 Sur 22 Sur 0 -- -- 26
2020-09-08 12:00:00 19.6 3 Este 16 Oeste 0 -- -- 29
2020-09-08 11:00:00 17.4 6 Noroeste 14 Sur 0 -- -- 36
2020-09-08 10:00:00 14.7 3 Norte 6 Nordeste 0 -- -- 44
2020-09-08 09:00:00 10.2 4 Este 6 Este 0 -- -- 58
2020-09-08 08:00:00 5.1 3 Sudeste 6 Sudeste 0 -- -- 73
2020-09-08 07:00:00 5.4 4 Sur 10 Sudeste 0 -- -- 70
2020-09-08 06:00:00 5.1 4 Sur 7 Sur 0 -- -- 64
2020-09-08 05:00:00 7.1 0 Calma 9 Este 0 -- -- 62
2020-09-08 04:00:00 8.3 8 Este 10 Nordeste 0 -- -- 58
2020-09-08 03:00:00 8.4 3 Sudeste 21 Nordeste 0 -- -- 58
2020-09-08 02:00:00 10.5 14 Nordeste 19 Nordeste 0 -- -- 53
2020-09-08 01:00:00 10.6 8 Nordeste 13 Nordeste 0 -- -- 55
2020-09-08 00:00:00 9.9 4 Este 8 Sudeste 0 -- -- 61
2020-09-07 23:00:00 12.1 5 Este 9 Sudeste 0 -- -- 54
2020-09-07 22:00:00 14.3 6 Este 15 Nordeste 0 -- -- 47
2020-09-07 21:00:00 16.8 9 Nordeste 22 Norte 0 -- -- 42
2020-09-07 20:00:00 19.4 14 Norte 28 Noroeste 0 -- -- 36
2020-09-07 19:00:00 21.6 19 Noroeste 30 Oeste 0 -- -- 33
2020-09-07 18:00:00 22.6 13 Noroeste 26 Oeste 0 -- -- 32
2020-09-07 17:00:00 22.3 6 Noroeste 20 Norte 0 -- -- 26
2020-09-07 16:00:00 20.7 11 Nordeste 20 Nordeste 0 -- -- 27
2020-09-07 15:00:00 19.1 11 Nordeste 23 Norte 0 -- -- 37
2020-09-07 14:00:00 17.5 9 Norte 22 Este 0 -- -- 41
2020-09-07 13:00:00 15.9 10 Norte 34 Nordeste 0 -- -- 47
2020-09-07 12:00:00 14.7 12 Nordeste 21 Nordeste 0 -- -- 54
2020-09-07 11:00:00 13.4 8 Nordeste 14 Norte 0 -- -- 61
2020-09-07 10:00:00 11.5 3 Noroeste 8 Norte 0 -- -- 71
2020-09-07 09:00:00 9.2 0 Calma 4 Norte 0 -- -- 81
2020-09-07 08:00:00 6.7 3 Norte 4 Norte 0 -- -- 90
2020-09-07 07:00:00 7.8 3 Noroeste 6 Noroeste 0 -- -- 83
2020-09-07 06:00:00 7.8 3 Nordeste 5 Nordeste 0 -- -- 84
2020-09-07 05:00:00 8.1 3 Sudeste 10 Sur 0 -- -- 82
2020-09-07 04:00:00 9 3 Sudoeste 5 Este 0 -- -- 76
2020-09-07 03:00:00 10.3 2 Oeste 8 Noroeste 0 -- -- 70
2020-09-07 02:00:00 11.4 5 Norte 10 Sudeste 0 -- -- 67
2020-09-07 01:00:00 11.6 2 Sudeste 8 Sur 0 -- -- 66
2020-09-07 00:00:00 13.4 3 Noroeste 9 Noroeste 0 -- -- 59
2020-09-06 23:00:00 15.2 2 Oeste 11 Sur 0 -- -- 55
2020-09-06 22:00:00 17.5 3 Noroeste 18 Noroeste 0 -- -- 49
2020-09-06 21:00:00 19.5 9 Noroeste 19 Noroeste 0 -- -- 46
2020-09-06 20:00:00 23.2 13 Noroeste 21 Noroeste 0 -- -- 38
2020-09-06 19:00:00 25.2 17 Norte 28 Noroeste 0 -- -- 35
2020-09-06 18:00:00 26.7 15 Noroeste 33 Noroeste 0 -- -- 34
2020-09-06 17:00:00 27.3 19 Norte 30 Norte 0 -- -- 35
2020-09-06 16:00:00 27.9 15 Noroeste 33 Oeste 0 -- -- 33
2020-09-06 15:00:00 27.4 14 Noroeste 26 Noroeste 0 -- -- 35
2020-09-06 14:00:00 26.3 10 Oeste 21 Oeste 0 -- -- 36
2020-09-06 13:00:00 24.9 8 Oeste 16 Oeste 0 -- -- 40
2020-09-06 12:00:00 23.5 9 Norte 22 Norte 0 -- -- 43
2020-09-06 11:00:00 21.5 5 Noroeste 11 Oeste 0 -- -- 49
2020-09-06 10:00:00 19.7 4 Noroeste 8 Sur 0 -- -- 54
2020-09-06 09:00:00 15.4 3 Este 7 Este 0 -- -- 67
2020-09-06 08:00:00 14.2 3 Noroeste 5 Sudeste 0 -- -- 67
2020-09-06 07:00:00 14.7 0 Calma 9 Sudeste 0 -- -- 64
2020-09-06 06:00:00 16 4 Sudeste 7 Este 0 -- -- 61
2020-09-06 05:00:00 18 3 Noroeste 13 Sur 0 -- -- 54
2020-09-06 04:00:00 19.8 5 Sur 13 Sudeste 0 -- -- 50
2020-09-06 03:00:00 21.2 6 Sur 27 Sudeste 0 -- -- 47
2020-09-06 02:00:00 20.1 8 Sudeste 15 Este 0 -- -- 48
2020-09-06 01:00:00 18.6 10 Nordeste 13 Nordeste 0 -- -- 55
2020-09-06 00:00:00 18.6 6 Este 8 Este 0 -- -- 47
2020-09-05 23:00:00 21.2 6 Sudeste 11 Este 0 -- -- 46
2020-09-05 22:00:00 22.5 4 Nordeste 15 Nordeste 0 -- -- 36
2020-09-05 21:00:00 24.4 13 Nordeste 30 Norte 0 -- -- 34
2020-09-05 20:00:00 28.7 8 Norte 21 Norte 0 -- -- 24
2020-09-05 19:00:00 30 8 Norte 19 Norte 0 -- -- 23
2020-09-05 18:00:00 29.8 10 Norte 21 Norte 0 -- -- 23
2020-09-05 17:00:00 30.4 6 Oeste 24 Este 0 -- -- 23
2020-09-05 16:00:00 29.7 9 Nordeste 26 Nordeste 0 -- -- 24
2020-09-05 15:00:00 29.2 14 Norte 27 Noroeste 0 -- -- 24
2020-09-05 14:00:00 28.6 11 Norte 26 Norte 0 -- -- 25
2020-09-05 13:00:00 27.3 9 Norte 17 Norte 0 -- -- 28
2020-09-05 12:00:00 25.9 6 Nordeste 15 Noroeste 0 -- -- 31
2020-09-05 11:00:00 24.4 9 Noroeste 14 Noroeste 0 -- -- 34
2020-09-05 10:00:00 22.7 4 Norte 7 Norte 0 -- -- 36
2020-09-05 09:00:00 17.9 7 Sudeste 10 Sudeste 0 -- -- 48
2020-09-05 08:00:00 15.8 3 Este 13 Sudeste 0 -- -- 48
2020-09-05 07:00:00 15.9 10 Este 12 Sudeste 0 -- -- 49
2020-09-05 06:00:00 15.9 11 Sudeste 14 Sudeste 0 -- -- 49
2020-09-05 05:00:00 15.1 2 Sudeste 9 Oeste 0 -- -- 52
2020-09-05 04:00:00 17.4 4 Sudeste 16 Sudeste 0 -- -- 45
2020-09-05 03:00:00 17.9 13 Sudeste 17 Sudeste 0 -- -- 45
2020-09-05 02:00:00 18.6 11 Sudeste 13 Sudeste 0 -- -- 43
2020-09-05 01:00:00 19 10 Sudeste 12 Sudeste 0 -- -- 44
2020-09-05 00:00:00 19.9 8 Sudeste 10 Sudeste 0 -- -- 43
2020-09-04 23:00:00 21 3 Este 22 Sur 0 -- -- 40
2020-09-04 22:00:00 22.8 11 Sudeste 18 Sur 0 -- -- 37
2020-09-04 21:00:00 25.6 8 Sur 23 Sur 0 -- -- 32
2020-09-04 20:00:00 29.1 8 Sur 21 Sudoeste 0 -- -- 27
2020-09-04 19:00:00 30.6 10 Sur 20 Sur 0 -- -- 26
2020-09-04 18:00:00 31.1 12 Noroeste 21 Noroeste 0 -- -- 25
2020-09-04 17:00:00 30.7 10 Noroeste 21 Noroeste 0 -- -- 25
2020-09-04 16:00:00 29.9 5 Nordeste 23 Noroeste 0 -- -- 25
2020-09-04 15:00:00 29.2 12 Nordeste 23 Noroeste 0 -- -- 26
2020-09-04 14:00:00 28.9 15 Noroeste 25 Oeste 0 -- -- 25
2020-09-04 13:00:00 28 11 Noroeste 22 Noroeste 0 -- -- 27
2020-09-04 12:00:00 27.1 11 Oeste 19 Oeste 0 -- -- 28
2020-09-04 11:00:00 26.4 6 Nordeste 13 Sudeste 0 -- -- 28
2020-09-04 10:00:00 24.3 9 Sudeste 16 Sudeste 0 -- -- 34
2020-09-04 09:00:00 19.9 12 Sudeste 18 Sudeste 0 -- -- 43
2020-09-04 08:00:00 18.4 15 Sudeste 21 Sudeste 0 -- -- 45
2020-09-04 07:00:00 18 14 Sudeste 23 Sudeste 0 -- -- 44
2020-09-04 06:00:00 18.8 14 Sudeste 22 Sudeste 0 -- -- 39
2020-09-04 05:00:00 18.4 13 Sudeste 21 Sur 0 -- -- 37
2020-09-04 04:00:00 18.7 16 Sudeste 30 Sudeste 0 -- -- 38
2020-09-04 03:00:00 17.5 15 Sudeste 19 Sudeste 0 -- -- 42
2020-09-04 02:00:00 17.4 2 Sur 13 Sudeste 0 -- -- 42
2020-09-04 01:00:00 18.9 10 Sudeste 15 Sudeste 0 -- -- 40
2020-09-04 00:00:00 20 10 Sudeste 17 Sudeste 0 -- -- 37
2020-09-03 23:00:00 20.2 11 Sudeste 20 Sudeste 0 -- -- 37
2020-09-03 22:00:00 22 5 Sudeste 13 Sudeste 0 -- -- 33
2020-09-03 21:00:00 23.4 9 Este 13 Este 0 -- -- 25
2020-09-03 20:00:00 28.5 7 Noroeste 15 Noroeste 0 -- -- 17
2020-09-03 19:00:00 29.1 10 Oeste 19 Noroeste 0 -- -- 17
2020-09-03 18:00:00 29.1 5 Oeste 24 Noroeste 0 -- -- 17
2020-09-03 17:00:00 28.5 9 Noroeste 25 Oeste 0 -- -- 17
2020-09-03 16:00:00 28.4 6 Sudoeste 23 Sudoeste 0 -- -- 18
2020-09-03 15:00:00 27.3 8 Oeste 39 Noroeste 0 -- -- 18
2020-09-03 14:00:00 25.7 8 Noroeste 19 Noroeste 0 -- -- 18
2020-09-03 13:00:00 24.4 4 Norte 15 Noroeste 0 -- -- 20
2020-09-03 12:00:00 23.2 8 Noroeste 17 Noroeste 0 -- -- 24
2020-09-03 11:00:00 21.9 6 Noroeste 10 Noroeste 0 -- -- 25
2020-09-03 10:00:00 19.7 3 Oeste 6 Oeste 0 -- -- 38
2020-09-03 09:00:00 16.2 4 Sudeste 9 Sudeste 0 -- -- 47
2020-09-03 08:00:00 13.1 9 Sudeste 12 Sudeste 0 -- -- 52
2020-09-03 07:00:00 12.7 10 Sudeste 12 Sudeste 0 -- -- 53
2020-09-03 06:00:00 12 9 Sudeste 14 Sudeste 0 -- -- 56
2020-09-03 05:00:00 10.8 10 Sudeste 12 Sudeste 0 -- -- 59
2020-09-03 04:00:00 12.3 7 Sudeste 14 Sudeste 0 -- -- 55
2020-09-03 03:00:00 13.6 12 Sudeste 13 Sudeste 0 -- -- 53
2020-09-03 02:00:00 13.7 10 Sudeste 13 Sudeste 0 -- -- 51
2020-09-03 01:00:00 13.7 9 Sudeste 11 Sudeste 0 -- -- 50
2020-09-03 00:00:00 14.5 9 Sudeste 12 Sudeste 0 -- -- 48
2020-09-02 23:00:00 15.4 8 Sudeste 10 Sudeste 0 -- -- 44
2020-09-02 22:00:00 18.6 7 Este 16 Noroeste 0 -- -- 36
2020-09-02 21:00:00 21.6 6 Norte 15 Noroeste 0 -- -- 29
2020-09-02 20:00:00 24.4 9 Noroeste 25 Noroeste 0 -- -- 27
2020-09-02 19:00:00 25.2 14 Noroeste 26 Norte 0 -- -- 27
2020-09-02 18:00:00 25.2 10 Norte 22 Noroeste 0 -- -- 28
2020-09-02 17:00:00 25.6 13 Noroeste 28 Norte 0 -- -- 28
2020-09-02 16:00:00 24.8 10 Norte 24 Norte 0 -- -- 26
2020-09-02 15:00:00 23.7 8 Noroeste 21 Noroeste 0 -- -- 28
2020-09-02 14:00:00 22.4 13 Noroeste 29 Norte 0 -- -- 31
2020-09-02 13:00:00 21.8 12 Norte 20 Nordeste 0 -- -- 33
2020-09-02 12:00:00 20.8 6 Norte 13 Noroeste 0 -- -- 33
2020-09-02 11:00:00 18.3 5 Noroeste 10 Noroeste 0 -- -- 39
2020-09-02 10:00:00 15.2 6 Noroeste 10 Noroeste 0 -- -- 48
2020-09-02 09:00:00 12.5 0 Calma 5 Noroeste 0 -- -- 57
2020-09-02 08:00:00 8.7 0 Calma 6 Este 0 -- -- 63
2020-09-02 07:00:00 9.5 3 Este 10 Este 0 -- -- 59
2020-09-02 06:00:00 10.6 6 Este 12 Este 0 -- -- 54
2020-09-02 05:00:00 11.8 11 Sudeste 13 Sudeste 0 -- -- 51
2020-09-02 04:00:00 11.4 9 Este 10 Este 0 -- -- 53
2020-09-02 03:00:00 11.1 7 Este 10 Nordeste 0 -- -- 56
2020-09-02 02:00:00 11.4 7 Este 12 Este 0 -- -- 52
2020-09-02 01:00:00 11.6 3 Sudeste 9 Nordeste 0 -- -- 51
2020-09-02 00:00:00 14.2 4 Este 8 Sur 0 -- -- 43
2020-09-01 23:00:00 16.6 7 Este 19 Nordeste 0 -- -- 36
2020-09-01 22:00:00 17.7 10 Este 14 Nordeste 0 -- -- 33
2020-09-01 21:00:00 20.5 6 Nordeste 17 Nordeste 0 -- -- 27
2020-09-01 20:00:00 22.2 11 Nordeste 23 Nordeste 0 -- -- 24
2020-09-01 19:00:00 23.7 5 Nordeste 24 Noroeste 0 -- -- 23
2020-09-01 18:00:00 24.9 8 Sudoeste 23 Noroeste 0 -- -- 18
2020-09-01 17:00:00 23.5 11 Noroeste 22 Norte 0 -- -- 19
2020-09-01 16:00:00 23.5 6 Sudeste 21 Norte 0 -- -- 22
2020-09-01 15:00:00 22.2 5 Oeste 21 Norte 0 -- -- 22
2020-09-01 14:00:00 22.2 6 Nordeste 20 Norte 0 -- -- 25
2020-09-01 13:00:00 20.8 7 Norte 12 Norte 0 -- -- 28
2020-09-01 12:00:00 19.6 3 Sudeste 10 Sudeste 0 -- -- 29
2020-09-01 11:00:00 18.4 5 Este 10 Nordeste 0 -- -- 34
2020-09-01 10:00:00 16.3 3 Sur 5 Sur 0 -- -- 41
2020-09-01 09:00:00 13.6 4 Este 9 Este 0 -- -- 49
2020-09-01 08:00:00 13.5 7 Este 17 Sudeste 0 -- -- 44
2020-09-01 07:00:00 12.3 4 Sudeste 14 Sudeste 0 -- -- 50
2020-09-01 06:00:00 12.4 6 Sudeste 9 Sudeste 0 -- -- 51
2020-09-01 05:00:00 13.8 6 Sudeste 10 Sudeste 0 -- -- 43
2020-09-01 04:00:00 13.2 6 Sudeste 12 Sudeste 0 -- -- 46
2020-09-01 03:00:00 12.7 11 Sudeste 12 Sudeste 0 -- -- 45
2020-09-01 02:00:00 11.6 10 Sudeste 12 Sudeste 0 -- -- 49
2020-09-01 01:00:00 11.7 10 Sudeste 12 Sudeste 0 -- -- 47
2020-09-01 00:00:00 12.4 9 Sudeste 12 Sudeste 0 -- -- 44
2020-08-31 23:00:00 12.8 9 Sudeste 11 Sudeste 0 -- -- 44
2020-08-31 22:00:00 14.1 6 Sudeste 10 Sudeste 0 -- -- 40
2020-08-31 21:00:00 18.4 4 Oeste 19 Oeste 0 -- -- 28
2020-08-31 20:00:00 21.5 12 Oeste 21 Oeste 0 -- -- 24
2020-08-31 19:00:00 21.5 12 Oeste 25 Oeste 0 -- -- 24
2020-08-31 18:00:00 23 14 Oeste 26 Oeste 0 -- -- 23
2020-08-31 17:00:00 22.3 14 Oeste 28 Oeste 0 -- -- 25
2020-08-31 16:00:00 21.1 9 Noroeste 25 Oeste 0 -- -- 26
2020-08-31 15:00:00 21.3 9 Oeste 33 Sudoeste 0 -- -- 27
2020-08-31 14:00:00 20.1 13 Oeste 24 Oeste 0 -- -- 30
2020-08-31 13:00:00 18.8 4 Norte 17 Sudoeste 0 -- -- 33
2020-08-31 12:00:00 17.4 5 Sur 17 Sudoeste 0 -- -- 35
2020-08-31 11:00:00 16.3 4 Sudeste 18 Sudeste 0 -- -- 40
2020-08-31 10:00:00 14.6 6 Nordeste 12 Nordeste 0 -- -- 47
2020-08-31 09:00:00 10.3 5 Sudeste 13 Sudeste 0 -- -- 63
2020-08-31 08:00:00 5.6 11 Sudeste 14 Sudeste 0 -- -- 72
2020-08-31 07:00:00 6 12 Sudeste 14 Sudeste 0 -- -- 69
2020-08-31 06:00:00 5.8 11 Sudeste 14 Sudeste 0 -- -- 72
2020-08-31 05:00:00 6 9 Sudeste 12 Sudeste 0 -- -- 70
2020-08-31 04:00:00 6.2 10 Sudeste 12 Sudeste 0 -- -- 71
2020-08-31 03:00:00 6.1 8 Sudeste 12 Sudeste 0 -- -- 75
2020-08-31 02:00:00 6.5 7 Sudeste 9 Sudeste 0 -- -- 76
2020-08-31 01:00:00 7.1 7 Este 10 Sudeste 0 -- -- 72
2020-08-31 00:00:00 8.4 8 Sudeste 10 Sudeste 0 -- -- 66
2020-08-30 23:00:00 10.5 6 Nordeste 12 Nordeste 0 -- -- 58
2020-08-30 22:00:00 11.1 8 Nordeste 11 Nordeste 0 -- -- 54
2020-08-30 21:00:00 13.8 9 Nordeste 19 Norte 0 -- -- 44
2020-08-30 20:00:00 15.6 14 Norte 24 Norte 0 -- -- 37
2020-08-30 19:00:00 15.9 13 Norte 27 Norte 0 -- -- 39
2020-08-30 18:00:00 17.3 13 Noroeste 26 Noroeste 0 -- -- 37
2020-08-30 17:00:00 16.2 12 Norte 26 Norte 0 -- -- 40
2020-08-30 16:00:00 15.3 12 Norte 22 Nordeste 0 -- -- 43
2020-08-30 15:00:00 14.2 14 Norte 22 Norte 0 -- -- 51
2020-08-30 14:00:00 13.8 9 Noroeste 18 Noroeste 0 -- -- 52
2020-08-30 13:00:00 13.4 8 Noroeste 22 Nordeste 0 -- -- 54
2020-08-30 12:00:00 11.6 8 Nordeste 19 Nordeste 0 -- -- 65
2020-08-30 11:00:00 10.4 13 Norte 25 Nordeste 0 -- -- 71
2020-08-30 10:00:00 9.2 5 Noroeste 9 Noroeste 0 -- -- 82
2020-08-30 09:00:00 7.5 0 Calma 5 Sur 0 -- -- 88
2020-08-30 08:00:00 4.3 3 Sudeste 6 Sudeste 0 -- -- 91
2020-08-30 07:00:00 4.6 5 Este 7 Sudeste 0 -- -- 92
2020-08-30 06:00:00 4.6 5 Sudeste 8 Este 0 -- -- 91
2020-08-30 05:00:00 4.5 5 Sudeste 6 Sudeste 0 -- -- 91
2020-08-30 04:00:00 5.1 3 Sudeste 6 Sudeste 0 -- -- 88
2020-08-30 03:00:00 6.5 0 Calma 9 Noroeste 0 -- -- 83
2020-08-30 02:00:00 7.2 4 Norte 8 Norte 0 -- -- 81
2020-08-30 01:00:00 8 5 Nordeste 19 Nordeste 0 -- -- 80
2020-08-30 00:00:00 8.7 10 Nordeste 22 Nordeste 0 -- -- 80
2020-08-29 23:00:00 9.7 8 Nordeste 19 Norte 0 -- -- 81
2020-08-29 22:00:00 10.2 9 Norte 28 Noroeste 1.6 -- -- 80
2020-08-29 21:00:00 10.8 21 Noroeste 36 Noroeste 1.6 -- -- 83
2020-08-29 20:00:00 13.8 6 Noroeste 23 Nordeste 0 -- -- 60
2020-08-29 19:00:00 14.5 19 Nordeste 36 Norte 0 -- -- 55
2020-08-29 18:00:00 14.5 6 Norte 35 Noroeste 1.2 -- -- 67
2020-08-29 17:00:00 18.5 22 Noroeste 39 Norte 0 -- -- 37
2020-08-29 16:00:00 17.3 17 Norte 32 Oeste 0 -- -- 41
2020-08-29 15:00:00 16.3 16 Noroeste 33 Noroeste 0 -- -- 43
2020-08-29 14:00:00 15.1 18 Noroeste 29 Noroeste 0 -- -- 48
2020-08-29 13:00:00 13.8 14 Noroeste 22 Oeste 0 -- -- 52
2020-08-29 12:00:00 12.9 11 Noroeste 24 Oeste 0 -- -- 57
2020-08-29 11:00:00 11.9 15 Noroeste 24 Noroeste 0 -- -- 62
2020-08-29 10:00:00 10.6 10 Noroeste 18 Noroeste 0 -- -- 69
2020-08-29 09:00:00 8.6 6 Oeste 10 Oeste 0 -- -- 77
2020-08-29 08:00:00 7.3 0 Calma 4 Oeste 0 -- -- 80
2020-08-29 07:00:00 8.1 4 Noroeste 10 Oeste 0 -- -- 80
2020-08-29 06:00:00 8.4 0 Calma 5 Sudoeste 0 -- -- 80
2020-08-29 05:00:00 8.8 3 Sudoeste 16 Noroeste 0 -- -- 79
2020-08-29 04:00:00 9.9 7 Noroeste 10 Noroeste 0 -- -- 78
2020-08-29 03:00:00 10.9 5 Oeste 12 Oeste 0 -- -- 78
2020-08-29 02:00:00 11.1 6 Oeste 17 Oeste 0 -- -- 79
2020-08-29 01:00:00 11.6 10 Oeste 18 Noroeste 0 -- -- 80
2020-08-29 00:00:00 13.2 14 Noroeste 27 Noroeste 0 -- -- 76
2020-08-28 23:00:00 17 12 Noroeste 28 Oeste 0 -- -- 52
2020-08-28 22:00:00 19.1 16 Oeste 35 Oeste 0 -- -- 27
2020-08-28 21:00:00 21.1 22 Oeste 39 Oeste 0 -- -- 26
2020-08-28 20:00:00 23.6 27 Oeste 40 Oeste 0 -- -- 20
2020-08-28 19:00:00 25.1 22 Oeste 41 Noroeste 0 -- -- 16
2020-08-28 18:00:00 25.7 23 Oeste 38 Oeste 0 -- -- 20
2020-08-28 17:00:00 25.4 23 Oeste 40 Sudoeste 0 -- -- 33
2020-08-28 16:00:00 25.4 18 Oeste 36 Oeste 0 -- -- 35
2020-08-28 15:00:00 24.3 22 Oeste 37 Oeste 0 -- -- 43
2020-08-28 14:00:00 22.9 26 Oeste 40 Oeste 0 -- -- 48
2020-08-28 13:00:00 21.5 19 Oeste 36 Sudoeste 0 -- -- 55
2020-08-28 12:00:00 20.5 17 Oeste 32 Oeste 0 -- -- 61
2020-08-28 11:00:00 19.1 19 Oeste 30 Oeste 0 -- -- 66
2020-08-28 10:00:00 17.6 16 Oeste 25 Oeste 0 -- -- 70
2020-08-28 09:00:00 17.6 6 Sudoeste 15 Sudoeste 0 -- -- 69
2020-08-28 08:00:00 17.1 9 Sudoeste 14 Sudoeste 0 -- -- 70
2020-08-28 07:00:00 17.4 4 Sudoeste 19 Oeste 0 -- -- 67
2020-08-28 06:00:00 18.3 7 Oeste 23 Oeste 0 -- -- 63
2020-08-28 05:00:00 19.2 9 Oeste 17 Oeste 0 -- -- 55
2020-08-28 04:00:00 19.8 6 Oeste 14 Sudoeste 0 -- -- 50
2020-08-28 03:00:00 20.4 8 Sudoeste 21 Oeste 0 -- -- 47
2020-08-28 02:00:00 20.8 12 Sudoeste 21 Sudoeste 0 -- -- 44
2020-08-28 01:00:00 21.4 8 Oeste 17 Oeste 0 -- -- 41
2020-08-28 00:00:00 21.6 6 Sudeste 11 Sudeste 0 -- -- 41
2020-08-27 23:00:00 22.2 10 Sudeste 13 Este 0 -- -- 40
2020-08-27 22:00:00 23.9 5 Sudeste 10 Noroeste 0 -- -- 36
2020-08-27 21:00:00 27.6 8 Oeste 18 Oeste 0 -- -- 29
2020-08-27 20:00:00 30.3 13 Oeste 30 Oeste 0 -- -- 24
2020-08-27 19:00:00 31.5 13 Noroeste 31 Oeste 0 -- -- 22
2020-08-27 18:00:00 31.6 17 Noroeste 32 Oeste 0 -- -- 23
2020-08-27 17:00:00 31.9 13 Noroeste 31 Oeste 0 -- -- 22
2020-08-27 16:00:00 30.6 10 Noroeste 31 Noroeste 0 -- -- 27
2020-08-27 15:00:00 30.2 15 Noroeste 28 Noroeste 0 -- -- 28
2020-08-27 14:00:00 28.8 10 Noroeste 24 Oeste 0 -- -- 32
2020-08-27 13:00:00 28.1 14 Oeste 26 Noroeste 0 -- -- 36
2020-08-27 12:00:00 27.3 17 Noroeste 25 Noroeste 0 -- -- 39
2020-08-27 11:00:00 25.7 11 Noroeste 16 Noroeste 0 -- -- 39
2020-08-27 10:00:00 25.4 5 Sudoeste 9 Oeste 0 -- -- 38
2020-08-27 09:00:00 21.5 6 Sudeste 14 Este 0 -- -- 43
2020-08-27 08:00:00 17.7 11 Sudeste 13 Sudeste 0 -- -- 48
2020-08-27 07:00:00 15.9 6 Sudeste 7 Sur 0 -- -- 54
2020-08-27 06:00:00 17.7 4 Sudeste 9 Este 0 -- -- 48
2020-08-27 05:00:00 18.3 8 Sudeste 11 Sudeste 0 -- -- 47
2020-08-27 04:00:00 18.4 5 Sudeste 8 Sudeste 0 -- -- 45
2020-08-27 03:00:00 20.2 8 Sudeste 12 Sudeste 0 -- -- 39
2020-08-27 02:00:00 20.5 10 Sudeste 12 Sudeste 0 -- -- 38
2020-08-27 01:00:00 21.1 6 Sudeste 12 Sudeste 0 -- -- 37
2020-08-27 00:00:00 21.8 9 Sudeste 10 Sudeste 0 -- -- 37
2020-08-26 23:00:00 22.6 9 Sudeste 10 Sudeste 0 -- -- 38
2020-08-26 22:00:00 23.9 7 Este 12 Sudeste 0 -- -- 36
2020-08-26 21:00:00 28.5 7 Noroeste 18 Oeste 0 -- -- 27
2020-08-26 20:00:00 31.3 11 Noroeste 26 Oeste 0 -- -- 24
2020-08-26 19:00:00 32.4 14 Oeste 30 Oeste 0 -- -- 23
2020-08-26 18:00:00 33 13 Noroeste 22 Oeste 0 -- -- 23
2020-08-26 17:00:00 32.7 13 Noroeste 29 Oeste 0 -- -- 23
2020-08-26 16:00:00 32.1 13 Sudoeste 31 Oeste 0 -- -- 23
2020-08-26 15:00:00 31.3 17 Oeste 31 Noroeste 0 -- -- 23
2020-08-26 14:00:00 30.9 15 Oeste 29 Oeste 0 -- -- 24
2020-08-26 13:00:00 30.1 6 Sur 19 Sudoeste 0 -- -- 23
2020-08-26 12:00:00 28.1 4 Norte 11 Sudoeste 0 -- -- 23
2020-08-26 11:00:00 25.3 4 Sudoeste 10 Oeste 0 -- -- 33
2020-08-26 10:00:00 23 4 Oeste 7 Oeste 0 -- -- 37
2020-08-26 09:00:00 19.8 4 Este 12 Sudeste 0 -- -- 44
2020-08-26 08:00:00 16.5 4 Este 9 Sudeste 0 -- -- 49
2020-08-26 07:00:00 17.1 9 Sudeste 15 Sudeste 0 -- -- 46
2020-08-26 06:00:00 16.3 5 Sudeste 12 Sudeste 0 -- -- 49
2020-08-26 05:00:00 17 5 Sudeste 13 Sur 0 -- -- 48
2020-08-26 04:00:00 17.4 9 Sudeste 12 Sudeste 0 -- -- 47
2020-08-26 03:00:00 18.8 4 Sur 9 Sudeste 0 -- -- 44
2020-08-26 02:00:00 20.6 9 Sudeste 12 Sudeste 0 -- -- 37
2020-08-26 01:00:00 20.6 8 Sudeste 10 Sudeste 0 -- -- 39
2020-08-26 00:00:00 21.8 5 Sudeste 12 Sudeste 0 -- -- 37
2020-08-25 23:00:00 22.5 10 Sudeste 12 Sudeste 0 -- -- 37
2020-08-25 22:00:00 23.5 10 Sudeste 12 Sudeste 0 -- -- 37
2020-08-25 21:00:00 28.9 6 Noroeste 19 Oeste 0 -- -- 25
2020-08-25 20:00:00 31 14 Oeste 22 Oeste 0 -- -- 22
2020-08-25 19:00:00 32.2 13 Oeste 36 Sudoeste 0 -- -- 21
2020-08-25 18:00:00 32.6 15 Oeste 31 Oeste 0 -- -- 20
2020-08-25 17:00:00 32.1 13 Noroeste 31 Oeste 0 -- -- 20
2020-08-25 16:00:00 31.7 19 Oeste 31 Oeste 0 -- -- 20
2020-08-25 15:00:00 31 18 Oeste 32 Oeste 0 -- -- 20
2020-08-25 14:00:00 29.9 16 Oeste 34 Sudoeste 0 -- -- 22
2020-08-25 13:00:00 29.5 13 Oeste 30 Sudoeste 0 -- -- 24
2020-08-25 12:00:00 28.2 5 Sudoeste 16 Oeste 0 -- -- 29
2020-08-25 11:00:00 27 7 Noroeste 13 Noroeste 0 -- -- 33
2020-08-25 10:00:00 25.2 4 Oeste 7 Oeste 0 -- -- 37
2020-08-25 09:00:00 21.4 5 Sudeste 11 Sudeste 0 -- -- 45
2020-08-25 08:00:00 18.2 10 Sudeste 13 Sudeste 0 -- -- 52
2020-08-25 07:00:00 18.3 11 Sudeste 14 Sudeste 0 -- -- 51
2020-08-25 06:00:00 18.9 10 Sudeste 12 Sudeste 0 -- -- 49
2020-08-25 05:00:00 18.4 10 Sudeste 15 Sudeste 0 -- -- 49
2020-08-25 04:00:00 16.7 10 Sudeste 14 Sudeste 0 -- -- 52
2020-08-25 03:00:00 15.7 12 Sudeste 14 Sudeste 0 -- -- 55
2020-08-25 02:00:00 16.4 8 Sudeste 10 Sudeste 0 -- -- 53
2020-08-25 01:00:00 18.5 8 Sudeste 10 Sudeste 0 -- -- 45
2020-08-25 00:00:00 19.4 8 Sudeste 11 Sudeste 0 -- -- 40
2020-08-24 23:00:00 19.9 9 Sudeste 14 Sudeste 0 -- -- 39
2020-08-24 22:00:00 21.3 5 Sudeste 9 Sur 0 -- -- 36
2020-08-24 21:00:00 26 0 Calma 19 Noroeste 0 -- -- 27
2020-08-24 20:00:00 28.4 13 Noroeste 22 Oeste 0 -- -- 23
2020-08-24 19:00:00 29.8 11 Oeste 24 Oeste 0 -- -- 22
2020-08-24 18:00:00 29.9 8 Noroeste 24 Noroeste 0 -- -- 22
2020-08-24 17:00:00 29.4 13 Noroeste 30 Noroeste 0 -- -- 22
2020-08-24 16:00:00 29.4 13 Oeste 24 Oeste 0 -- -- 23
2020-08-24 15:00:00 27.8 10 Noroeste 23 Noroeste 0 -- -- 27
2020-08-24 14:00:00 26.7 8 Noroeste 22 Oeste 0 -- -- 30
2020-08-24 13:00:00 25.5 7 Noroeste 17 Noroeste 0 -- -- 33
2020-08-24 12:00:00 24.4 5 Noroeste 15 Oeste 0 -- -- 35
2020-08-24 11:00:00 23.1 5 Noroeste 11 Noroeste 0 -- -- 37
2020-08-24 10:00:00 20.8 3 Sudeste 6 Sur 0 -- -- 42
2020-08-24 09:00:00 16.3 0 Calma 5 Este 0 -- -- 54
2020-08-24 08:00:00 12.8 4 Este 12 Sudeste 0 -- -- 62
2020-08-24 07:00:00 13 10 Sudeste 12 Sudeste 0 -- -- 61
2020-08-24 06:00:00 12.6 9 Este 10 Este 0 -- -- 67
2020-08-24 05:00:00 12.4 5 Sudeste 13 Este 0 -- -- 63
2020-08-24 04:00:00 15.2 11 Nordeste 17 Sudeste 0 -- -- 51
2020-08-24 03:00:00 14.1 9 Sudeste 14 Sudeste 0 -- -- 51
2020-08-24 02:00:00 14.6 10 Sudeste 11 Sudeste 0 -- -- 51
2020-08-24 01:00:00 15.6 9 Sudeste 12 Este 0 -- -- 49
2020-08-24 00:00:00 16.3 8 Sudeste 12 Sudeste 0 -- -- 47
2020-08-23 23:00:00 18.2 3 Oeste 14 Nordeste 0 -- -- 40
2020-08-23 22:00:00 20.6 6 Este 13 Nordeste 0 -- -- 34
2020-08-23 21:00:00 24.3 9 Norte 16 Norte 0 -- -- 26
2020-08-23 20:00:00 26.7 11 Norte 20 Norte 0 -- -- 23
2020-08-23 19:00:00 27.7 11 Norte 26 Norte 0 -- -- 25
2020-08-23 18:00:00 28.1 15 Noroeste 25 Norte 0 -- -- 25
2020-08-23 17:00:00 28 5 Norte 21 Nordeste 0 -- -- 23
2020-08-23 16:00:00 27.4 8 Sudoeste 21 Oeste 0 -- -- 22
2020-08-23 15:00:00 25.7 7 Nordeste 19 Nordeste 0 -- -- 23
2020-08-23 14:00:00 24.7 8 Norte 23 Norte 0 -- -- 25
2020-08-23 13:00:00 23.9 10 Norte 21 Norte 0 -- -- 28
2020-08-23 12:00:00 23 9 Norte 19 Norte 0 -- -- 30
2020-08-23 11:00:00 22.4 9 Norte 14 Norte 0 -- -- 32
2020-08-23 10:00:00 21 3 Sudeste 8 Sudeste 0 -- -- 36
2020-08-23 09:00:00 16.2 4 Sudeste 8 Sudeste 0 -- -- 55
2020-08-23 08:00:00 11.7 4 Este 12 Sudeste 0 -- -- 61
2020-08-23 07:00:00 12.4 11 Sudeste 13 Sudeste 0 -- -- 57
2020-08-23 06:00:00 13.4 11 Sudeste 14 Sudeste 0 -- -- 53
2020-08-23 05:00:00 12.3 12 Sudeste 14 Sudeste 0 -- -- 57
2020-08-23 04:00:00 12.6 5 Este 10 Este 0 -- -- 57
2020-08-23 03:00:00 14.1 7 Este 15 Sudeste 0 -- -- 52
2020-08-23 02:00:00 14.8 8 Sudeste 10 Sudeste 0 -- -- 50
2020-08-23 01:00:00 15.5 7 Sudeste 10 Sudeste 0 -- -- 48
2020-08-23 00:00:00 15.7 8 Sudeste 9 Sudeste 0 -- -- 51
2020-08-22 23:00:00 17.5 5 Sudeste 9 Sudeste 0 -- -- 47
2020-08-22 22:00:00 19.8 7 Sudeste 11 Noroeste 0 -- -- 40
2020-08-22 21:00:00 24.6 9 Noroeste 16 Noroeste 0 -- -- 28
2020-08-22 20:00:00 27.1 10 Noroeste 19 Oeste 0 -- -- 24
2020-08-22 19:00:00 27.9 10 Noroeste 29 Oeste 0 -- -- 20
2020-08-22 18:00:00 27.9 13 Oeste 24 Oeste 0 -- -- 25
2020-08-22 17:00:00 27.6 14 Oeste 29 Oeste 0 -- -- 25
2020-08-22 16:00:00 26.8 14 Oeste 24 Oeste 0 -- -- 28
2020-08-22 15:00:00 25.4 13 Oeste 22 Oeste 0 -- -- 36
2020-08-22 14:00:00 23.4 8 Oeste 17 Oeste 0 -- -- 44
2020-08-22 13:00:00 22.3 5 Oeste 14 Norte 0 -- -- 51
2020-08-22 12:00:00 20.4 6 Noroeste 15 Noroeste 0 -- -- 53
2020-08-22 11:00:00 18.9 4 Sur 9 Sudeste 0 -- -- 61
2020-08-22 10:00:00 16.9 0 Calma 5 Noroeste 0 -- -- 67
2020-08-22 09:00:00 14.4 2 Sudeste 7 Sudeste 0 -- -- 78
2020-08-22 08:00:00 11.6 7 Sudeste 10 Sudeste 0 -- -- 85
2020-08-22 07:00:00 11.5 7 Sudeste 12 Este 0 -- -- 85
2020-08-22 06:00:00 12.1 10 Sudeste 12 Sudeste 0 -- -- 83
2020-08-22 05:00:00 13.1 8 Sudeste 10 Sudeste 0 -- -- 79
2020-08-22 04:00:00 14.4 6 Sudeste 8 Sudeste 0 -- -- 79
2020-08-22 03:00:00 16 4 Sudeste 10 Sur 0 -- -- 79
2020-08-22 02:00:00 17.1 3 Sudoeste 9 Sudoeste 0 -- -- 81
2020-08-22 01:00:00 18 2 Noroeste 15 Noroeste 0 -- -- 84
2020-08-22 00:00:00 18.3 5 Sudeste 8 Este 0 -- -- 87
2020-08-21 23:00:00 19.2 3 Sudoeste 6 Sur 0 -- -- 84
2020-08-21 22:00:00 20.1 3 Sur 6 Sur 0 -- -- 87
2020-08-21 21:00:00 20 4 Sur 10 Sudoeste 0 -- -- 88
2020-08-21 20:00:00 19.4 7 Sudeste 17 Sudeste 0 -- -- 85
2020-08-21 19:00:00 19.3 13 Sudoeste 31 Sudoeste 5.8 -- -- 87
2020-08-21 18:00:00 24.5 17 Oeste 42 Oeste 0 -- -- 59
2020-08-21 17:00:00 26.8 21 Oeste 36 Oeste 0 -- -- 52
2020-08-21 16:00:00 29.2 23 Oeste 39 Oeste 0 -- -- 40
2020-08-21 15:00:00 27.7 9 Oeste 28 Oeste 0 -- -- 40
2020-08-21 14:00:00 27.6 14 Oeste 31 Oeste 0 -- -- 40
2020-08-21 13:00:00 26.3 13 Oeste 24 Oeste 0 -- -- 42
2020-08-21 12:00:00 24.7 11 Oeste 23 Noroeste 0 -- -- 50
2020-08-21 11:00:00 23 6 Noroeste 16 Oeste 0 -- -- 55
2020-08-21 10:00:00 21.4 2 Norte 6 Noroeste 0 -- -- 62
2020-08-21 09:00:00 18.7 3 Sudeste 10 Sudeste 0 -- -- 78
2020-08-21 08:00:00 14.1 4 Sudeste 10 Sudeste 0 -- -- 90
2020-08-21 07:00:00 14.3 5 Este 13 Sudeste 0 -- -- 87
2020-08-21 06:00:00 14.8 0 Calma 9 Noroeste 0 -- -- 84
2020-08-21 05:00:00 16 6 Sudeste 9 Sudeste 0 -- -- 84
2020-08-21 04:00:00 16.8 5 Nordeste 6 Nordeste 0 -- -- 83
2020-08-21 03:00:00 17.4 3 Este 5 Este 0 -- -- 79
2020-08-21 02:00:00 18.8 4 Noroeste 14 Noroeste 0 -- -- 71
2020-08-21 01:00:00 19.9 10 Noroeste 23 Sudoeste 0 -- -- 35
2020-08-21 00:00:00 21 10 Oeste 19 Sudoeste 0 -- -- 28